Time;durP1;ratioP1;P1;durP2;ratioP2;P2;SDS_P1;SDS_P2;PMS_P1;PMS_P2;Temp;Humidity;BMP_temperature;BMP_pressure;BME280_temperature;BME280_humidity;BME280_pressure;Samples;Min_cycle;Max_cycle;Signal;HPM_P1;HPM_P2
2022/03/17 00:02:26;;;;;;;55.45;26.10;;;;;;;4.53;80.97;99083.38;4441103;32;20173;-77
2022/03/17 00:04:53;;;;;;;58.33;27.42;;;;;;;4.75;78.31;99076.50;4441112;32;20149;-77
2022/03/17 00:07:20;;;;;;;60.90;28.00;;;;;;;4.27;81.77;99072.38;4440610;32;20101;-77
2022/03/17 00:09:47;;;;;;;58.42;27.23;;;;;;;4.21;82.53;99070.66;4440877;32;20149;-77
2022/03/17 00:12:14;;;;;;;60.58;26.92;;;;;;;4.41;82.37;99069.78;4441085;32;20137;-77
2022/03/17 00:14:41;;;;;;;65.12;27.60;;;;;;;4.33;83.71;99075.75;4440695;32;20136;-77
2022/03/17 00:17:08;;;;;;;65.78;27.98;;;;;;;4.29;85.32;99068.94;4440964;32;20120;-77
2022/03/17 00:19:36;;;;;;;65.03;27.50;;;;;;;4.83;84.68;99076.50;4439332;32;20090;-77
2022/03/17 00:22:08;;;;;;;61.50;27.50;;;;;;;4.67;85.29;99069.72;4440905;32;20145;-77
2022/03/17 00:24:36;;;;;;;63.13;27.45;;;;;;;4.88;84.48;99080.72;4440970;32;20757;-77
2022/03/17 00:27:11;;;;;;;61.08;26.62;;;;;;;4.84;83.54;99078.19;4440479;32;20103;-77
2022/03/17 00:29:38;;;;;;;57.85;26.65;;;;;;;4.38;85.10;99087.69;4440744;32;20158;-77
2022/03/17 00:32:07;;;;;;;57.38;26.50;;;;;;;4.33;84.03;99090.22;4440859;32;20101;-77
2022/03/17 00:35:35;;;;;;;66.85;28.30;;;;;;;4.20;84.77;99088.53;4440535;32;20093;-77
2022/03/17 00:37:24;;;;;;;66.93;28.33;;;;;;;4.42;83.18;99091.94;4440667;32;20144;-77
2022/03/17 00:39:52;;;;;;;65.97;27.00;;;;;;;4.68;81.99;99092.75;4440682;32;20124;-77
2022/03/17 00:42:20;;;;;;;56.92;26.08;;;;;;;4.86;80.79;99089.25;4440588;32;20111;-77
2022/03/17 00:44:48;;;;;;;54.00;24.50;;;;;;;4.31;81.04;99091.94;4440752;32;20436;-77
2022/03/17 00:47:15;;;;;;;51.17;22.65;;;;;;;3.65;81.44;99088.53;4440723;32;20160;-77
2022/03/17 00:49:42;;;;;;;54.22;24.63;;;;;;;4.09;78.58;99098.75;4440230;32;20089;-77
2022/03/17 00:52:11;;;;;;;54.63;24.00;;;;;;;3.58;79.70;99086.81;4440308;32;20082;-77
2022/03/17 00:54:41;;;;;;;53.05;22.98;;;;;;;2.61;84.20;99099.19;4440401;32;20137;-76
2022/03/17 00:57:12;;;;;;;49.38;23.30;;;;;;;2.69;84.30;99096.69;4440768;32;20440;-77
2022/03/17 00:59:40;;;;;;;52.05;22.83;;;;;;;2.62;84.80;99094.94;4440588;32;20137;-77
2022/03/17 01:02:07;;;;;;;58.97;24.20;;;;;;;2.39;86.51;99093.94;4440335;32;20466;-77
2022/03/17 01:04:35;;;;;;;54.10;24.20;;;;;;;2.87;85.32;99095.91;4440615;32;20157;-77
2022/03/17 01:07:03;;;;;;;52.33;22.05;;;;;;;2.45;86.70;99092.31;4440453;32;20085;-77
2022/03/17 01:09:30;;;;;;;53.75;23.55;;;;;;;2.31;87.97;99091.34;4440142;32;20141;-77
2022/03/17 01:11:57;;;;;;;52.40;21.95;;;;;;;2.33;89.28;99093.06;4440590;32;20145;-77
2022/03/17 01:14:24;;;;;;;59.45;24.65;;;;;;;1.99;89.60;99091.97;4439351;32;20115;-77
2022/03/17 01:16:51;;;;;;;50.83;22.17;;;;;;;2.21;88.48;99092.13;4440208;32;20085;-77
2022/03/17 01:19:21;;;;;;;54.47;23.05;;;;;;;3.08;85.31;99083.25;4440326;32;20235;-77
2022/03/17 01:21:49;;;;;;;58.05;23.30;;;;;;;2.32;87.24;99087.94;4440450;32;20093;-77
2022/03/17 01:24:17;;;;;;;53.25;22.17;;;;;;;1.71;92.28;99088.34;4440103;32;20097;-77
2022/03/17 01:26:45;;;;;;;52.83;22.83;;;;;;;2.38;87.53;99082.91;4440327;32;20168;-77
2022/03/17 01:29:14;;;;;;;51.65;22.17;;;;;;;2.49;86.89;99088.06;4440332;32;20073;-77
2022/03/17 01:31:41;;;;;;;55.30;23.23;;;;;;;2.74;85.38;99081.41;4439971;32;20160;-77
2022/03/17 01:34:08;;;;;;;;;;;;;;;2.87;84.26;99083.16;4440678;32;20144;-77
2022/03/17 01:36:35;;;;;;;49.13;22.30;;;;;;;2.20;85.51;99085.31;4440112;32;20010;-76
2022/03/17 01:39:02;;;;;;;;;;;;;;;2.16;85.86;99078.53;4440517;32;20136;-77
2022/03/17 01:41:29;;;;;;;49.22;20.55;;;;;;;2.63;83.51;99078.81;4440288;32;20025;-77
2022/03/17 01:43:56;;;;;;;51.03;21.55;;;;;;;2.49;83.80;99076.19;4439848;32;20133;-77
2022/03/17 01:46:23;;;;;;;;;;;;;;;2.57;83.27;99076.25;4440550;32;20086;-77
2022/03/17 01:48:50;;;;;;;51.15;20.23;;;;;;;2.47;83.96;99074.47;4440176;32;20418;-77
2022/03/17 01:51:17;;;;;;;49.08;20.67;;;;;;;2.13;85.49;99075.97;4439825;32;20428;-77
2022/03/17 01:53:44;;;;;;;;;;;;;;;1.99;86.32;99075.84;4440304;32;20097;-77
2022/03/17 01:56:11;;;;;;;53.10;22.30;;;;;;;0.96;94.11;99075.66;4440060;32;20371;-77
2022/03/17 01:58:38;;;;;;;46.15;21.27;;;;;;;1.64;92.11;99080.63;4438499;32;20470;-77
2022/03/17 02:01:05;;;;;;;47.58;21.08;;;;;;;1.87;88.83;99080.81;4439933;32;20128;-77
2022/03/17 02:03:32;;;;;;;50.47;20.05;;;;;;;2.64;84.38;99079.66;4439941;32;20159;-77
2022/03/17 02:05:59;;;;;;;;;;;;;;;2.66;83.06;99071.19;4439840;32;20427;-77
2022/03/17 02:08:27;;;;;;;42.45;18.95;;;;;;;2.46;81.68;99071.09;4439769;32;20367;-77
2022/03/17 02:13:40;;;;;;;47.78;19.02;;;;;;;2.24;83.53;99074.34;4439570;32;20114;-76
2022/03/17 02:16:07;;;;;;;42.28;18.50;;;;;;;1.75;85.57;99073.94;4441565;32;20136;-77
2022/03/17 02:18:34;;;;;;;44.33;18.90;;;;;;;2.05;85.66;99072.50;4441804;32;20085;-77
2022/03/17 02:21:01;;;;;;;;;;;;;;;1.76;86.97;99077.34;4441471;32;20149;-77
2022/03/17 02:26:14;;;;;;;41.63;17.65;;;;;;;1.95;86.81;99074.97;4441548;32;20141;-76
2022/03/17 02:28:41;;;;;;;43.90;17.50;;;;;;;2.28;86.02;99076.91;4441680;32;20141;-77
2022/03/17 02:31:08;;;;;;;40.92;18.00;;;;;;;2.56;85.10;99083.03;4441540;32;20128;-77
2022/03/17 02:33:38;;;;;;;;;;;;;;;2.45;84.72;99083.81;4440492;32;20280;-77
2022/03/17 02:36:05;;;;;;;43.95;17.27;;;;;;;2.49;83.21;99091.47;4441754;32;19987;-77
2022/03/17 02:38:33;;;;;;;40.75;17.37;;;;;;;2.22;83.71;99088.72;4441682;32;20504;-77
2022/03/17 02:41:00;;;;;;;41.08;17.00;;;;;;;2.52;82.92;99080.44;4441079;32;20133;-77
2022/03/17 02:43:27;;;;;;;37.90;17.02;;;;;;;2.28;83.74;99083.69;4441589;32;20132;-77
2022/03/17 02:45:54;;;;;;;40.03;17.42;;;;;;;2.77;82.24;99076.34;4441503;32;20164;-77
2022/03/17 02:48:21;;;;;;;39.72;16.98;;;;;;;2.69;82.19;99080.53;4441174;32;20104;-77
2022/03/17 02:50:48;;;;;;;;;;;;;;;2.12;84.50;99075.06;4441665;32;20112;-77
2022/03/17 02:53:15;;;;;;;40.35;16.77;;;;;;;1.65;87.94;99078.09;4441440;32;19991;-77
2022/03/17 02:55:43;;;;;;;39.42;17.60;;;;;;;1.83;87.38;99087.59;4441227;32;20081;-77
2022/03/17 02:58:11;;;;;;;36.03;16.27;;;;;;;2.12;86.09;99089.50;4441518;32;20085;-77
2022/03/17 03:00:38;;;;;;;35.10;15.68;;;;;;;2.29;85.30;99088.78;4440214;32;20391;-77
2022/03/17 03:03:06;;;;;;;34.97;16.17;;;;;;;2.53;84.27;99092.34;4441148;32;20109;-77
2022/03/17 03:05:34;;;;;;;41.88;17.83;;;;;;;2.53;83.96;99083.00;4441409;32;20108;-77
2022/03/17 03:08:02;;;;;;;35.33;16.77;;;;;;;2.21;84.08;99080.25;4441064;32;20089;-77
2022/03/17 03:10:30;;;;;;;31.20;14.63;;;;;;;2.39;83.88;99073.56;4441195;32;20102;-77
2022/03/17 03:12:58;;;;;;;31.62;14.65;;;;;;;2.30;85.51;99072.66;4441434;32;20112;-77
2022/03/17 03:15:25;;;;;;;35.20;15.77;;;;;;;1.72;92.78;99068.84;4439884;32;20410;-77
2022/03/17 03:17:54;;;;;;;38.92;16.83;;;;;;;2.48;89.21;99073.63;4441321;32;20156;-77
2022/03/17 03:20:22;;;;;;;34.53;15.48;;;;;;;3.01;80.74;99079.00;4441256;32;20164;-77
2022/03/17 03:22:49;;;;;;;40.58;17.98;;;;;;;3.18;77.91;99082.44;4440985;32;20115;-76
2022/03/17 03:25:16;;;;;;;;;;;;;;;2.73;79.08;99095.00;4441538;32;20164;-77
2022/03/17 03:27:44;;;;;;;39.38;17.52;;;;;;;2.60;79.39;99097.47;4440535;32;20368;-77
2022/03/17 03:30:13;;;;;;;38.67;16.27;;;;;;;1.87;80.51;99101.19;4440776;32;20578;-77
2022/03/17 03:32:42;;;;;;;31.20;14.00;;;;;;;1.90;80.12;99102.06;4441265;32;20127;-76
2022/03/17 03:38:11;;;;;;;39.35;15.55;;;;;;;1.67;79.74;99093.37;4407992;32;20184;-77
2022/03/17 03:40:38;;;;;;;;;;;;;;;1.30;81.75;99087.94;4434824;32;20444;-77
2022/03/17 03:43:05;;;;;;;34.97;14.40;;;;;;;2.07;80.24;99089.47;4440905;32;19992;-76
2022/03/17 03:45:32;;;;;;;;;;;;;;;1.77;81.74;99087.53;4441497;32;20086;-77
2022/03/17 03:47:59;;;;;;;37.15;16.20;;;;;;;2.09;81.67;99100.53;4441276;32;20225;-77
2022/03/17 03:50:25;;;;;;;38.40;15.90;;;;;;;2.34;81.47;99109.22;4440683;32;20162;-76
2022/03/17 03:52:52;;;;;;;;;;;;;;;2.48;81.09;99110.16;4441254;32;20466;-77
2022/03/17 03:55:19;;;;;;;38.80;17.55;;;;;;;2.15;82.00;99117.56;4441181;32;20040;-77
2022/03/17 03:57:48;;;;;;;35.05;15.90;;;;;;;2.48;80.88;99127.13;4440764;32;20144;-77
2022/03/17 04:02:58;;;;;;;37.63;16.50;;;;;;;2.53;78.15;99126.31;4440953;32;20102;-76
2022/03/17 04:05:29;;;;;;;33.42;15.80;;;;;;;2.46;76.24;99128.81;4440643;32;20084;-76
2022/03/17 04:07:57;;;;;;;34.40;15.40;;;;;;;1.86;77.97;99130.03;4441108;32;20099;-76
2022/03/17 04:10:25;;;;;;;36.80;14.68;;;;;;;1.35;79.45;99138.81;4440896;32;20564;-76
2022/03/17 04:12:52;;;;;;;30.80;13.40;;;;;;;1.18;80.31;99147.94;4440705;32;20090;-76
2022/03/17 04:15:19;;;;;;;31.25;13.85;;;;;;;1.05;80.68;99157.09;4441000;32;20182;-76
2022/03/17 04:17:46;;;;;;;39.45;14.15;;;;;;;1.20;79.96;99157.28;4440969;32;20085;-76
2022/03/17 04:20:13;;;;;;;32.42;14.25;;;;;;;1.28;79.76;99158.25;4440407;32;20105;-76
2022/03/17 04:22:41;;;;;;;;;;;;;;;0.86;81.17;99156.88;4441244;32;20460;-76
2022/03/17 04:25:08;;;;;;;29.12;12.32;;;;;;;0.77;81.26;99168.59;4440627;32;20044;-76
2022/03/17 04:27:35;;;;;;;31.33;14.18;;;;;;;0.85;81.74;99172.06;4440853;32;20197;-77
2022/03/17 04:30:02;;;;;;;;;;;;;;;0.59;83.49;99171.69;4441042;32;20450;-77
2022/03/17 04:32:29;;;;;;;30.00;12.80;;;;;;;0.91;82.83;99168.75;4440647;32;20019;-76
2022/03/17 04:34:55;;;;;;;;;;;;;;;1.08;82.47;99174.94;4441228;32;20471;-76
2022/03/17 04:37:22;;;;;;;28.85;12.98;;;;;;;0.92;83.35;99176.41;4440617;32;19983;-76
2022/03/17 04:39:49;;;;;;;;;;;;;;;0.95;83.95;99173.03;4440799;32;20094;-76
2022/03/17 04:42:16;;;;;;;30.52;13.95;;;;;;;1.01;84.84;99173.13;4440852;32;20000;-76
2022/03/17 04:44:43;;;;;;;;;;;;;;;0.82;86.17;99170.34;4441104;32;20081;-76
2022/03/17 04:47:09;;;;;;;29.83;13.15;;;;;;;0.94;87.54;99173.88;4440540;32;20037;-77
2022/03/17 04:49:36;;;;;;;31.45;13.68;;;;;;;1.33;84.63;99176.09;4440540;32;20136;-76
2022/03/17 04:53:26;;;;;;;;;;;;;;;1.32;83.20;99175.25;4440815;32;20111;-77
2022/03/17 04:54:50;;;;;;;34.80;12.65;;;;;;;1.43;82.02;99181.31;4440613;32;19981;-76
2022/03/17 04:57:17;;;;;;;;;;;;;;;1.51;79.85;99193.28;4441018;32;20116;-76
2022/03/17 04:59:44;;;;;;;31.65;12.98;;;;;;;1.48;79.60;99188.13;4440594;32;19991;-76
2022/03/17 05:02:13;;;;;;;30.05;14.60;;;;;;;1.24;80.48;99193.78;4439216;32;20188;-76
2022/03/17 05:04:40;;;;;;;31.08;12.73;;;;;;;1.59;79.02;99195.03;4440642;32;20349;-76
2022/03/17 05:07:07;;;;;;;29.90;13.48;;;;;;;1.33;79.99;99201.53;4440361;32;20574;-76
2022/03/17 05:09:34;;;;;;;32.15;13.60;;;;;;;1.00;81.57;99209.56;4426506;32;20156;-76
2022/03/17 05:12:01;;;;;;;;;;;;;;;0.64;82.65;99208.19;4440815;32;20160;-76
2022/03/17 05:14:28;;;;;;;29.77;12.88;;;;;;;0.29;82.59;99212.69;4440247;32;19986;-76
2022/03/17 05:16:54;;;;;;;;;;;;;;;-0.06;83.83;99212.09;4440958;32;20623;-76
2022/03/17 05:19:21;;;;;;;28.85;11.68;;;;;;;0.03;83.35;99216.47;4440460;32;19980;-76
2022/03/17 05:21:48;;;;;;;;;;;;;;;0.14;83.87;99220.91;4440422;32;20407;-76
2022/03/17 05:24:15;;;;;;;26.80;12.32;;;;;;;0.26;85.26;99213.50;4440563;32;19977;-76
2022/03/17 05:26:42;;;;;;;;;;;;;;;0.26;87.16;99217.72;4440735;32;20156;-76
2022/03/17 05:29:08;;;;;;;29.67;12.10;;;;;;;0.10;87.67;99219.12;4440000;32;19981;-77
2022/03/17 05:31:35;;;;;;;;;;;;;;;0.70;86.47;99231.13;4440705;32;20101;-76
2022/03/17 05:34:02;;;;;;;30.50;12.55;;;;;;;1.38;85.34;99232.94;4440417;32;20059;-77
2022/03/17 05:36:29;;;;;;;28.23;11.07;;;;;;;1.74;85.05;99227.44;4440060;32;20099;-77
2022/03/17 05:38:57;;;;;;;29.83;12.82;;;;;;;1.56;88.24;99238.25;4440075;32;20141;-77
2022/03/17 05:41:23;;;;;;;26.05;11.68;;;;;;;1.94;88.16;99231.06;4440296;32;20105;-77
2022/03/17 05:43:50;;;;;;;;;;;;;;;2.78;84.30;99233.53;4440243;32;20081;-77
2022/03/17 05:46:17;;;;;;;27.65;11.88;;;;;;;3.47;81.07;99227.97;4440215;32;20035;-77
2022/03/17 05:48:44;;;;;;;24.42;11.38;;;;;;;4.31;77.99;99237.56;4439454;32;20089;-77
2022/03/17 05:51:12;;;;;;;24.02;11.50;;;;;;;5.19;73.60;99234.97;4439498;32;20169;-77
2022/03/17 05:53:39;;;;;;;22.20;10.60;;;;;;;6.01;70.62;99236.41;4440016;32;20160;-77
2022/03/17 05:56:10;;;;;;;24.60;10.18;;;;;;;6.73;66.21;99241.03;4440037;32;20077;-77
2022/03/17 05:58:37;;;;;;;23.92;10.77;;;;;;;7.44;64.41;99243.75;4440150;32;20128;-77
2022/03/17 06:01:04;;;;;;;22.80;11.15;;;;;;;8.25;60.99;99245.31;4439898;32;20142;-78
2022/03/17 06:03:31;;;;;;;27.30;12.35;;;;;;;8.50;59.05;99240.66;4439614;32;20594;-78
2022/03/17 06:05:59;;;;;;;21.55;10.98;;;;;;;9.17;57.26;99249.88;4439906;32;20720;-78
2022/03/17 06:08:27;;;;;;;26.27;12.60;;;;;;;9.32;55.77;99253.87;4439832;32;20085;-78
2022/03/17 06:10:53;;;;;;;24.75;12.40;;;;;;;10.34;53.51;99244.06;4439354;32;20153;-78
2022/03/17 06:13:20;;;;;;;29.83;13.25;;;;;;;11.02;52.10;99246.72;4439868;32;20172;-78
2022/03/17 06:15:47;;;;;;;31.92;13.18;;;;;;;12.11;49.70;99249.75;4439788;32;20407;-78
2022/03/17 06:18:14;;;;;;;26.10;13.80;;;;;;;12.95;47.80;99252.28;4439471;32;20124;-78
2022/03/17 06:20:41;;;;;;;23.87;12.57;;;;;;;13.83;45.88;99249.22;4439660;32;20093;-79
2022/03/17 06:23:08;;;;;;;26.40;14.00;;;;;;;14.44;44.96;99253.81;4439694;32;20436;-78
2022/03/17 06:25:36;;;;;;;26.02;11.73;;;;;;;14.86;43.93;99261.69;4439392;32;20090;-78
2022/03/17 06:28:07;;;;;;;22.00;12.20;;;;;;;15.59;41.28;99261.16;4439738;32;20154;-78
2022/03/17 06:30:35;;;;;;;21.60;12.13;;;;;;;15.31;41.28;99260.66;4439362;32;20115;-78
2022/03/17 06:33:04;;;;;;;21.00;11.85;;;;;;;14.74;42.44;99259.56;4439202;32;20113;-78
2022/03/17 06:35:32;;;;;;;21.42;12.02;;;;;;;14.35;43.23;99264.56;4439593;32;20089;-78
2022/03/17 06:38:01;;;;;;;19.73;10.75;;;;;;;13.73;44.70;99268.63;4439417;32;20107;-78
2022/03/17 06:40:29;;;;;;;21.85;11.48;;;;;;;13.51;45.91;99271.13;4438993;32;20156;-77
2022/03/17 06:42:56;;;;;;;21.33;12.32;;;;;;;13.32;45.93;99272.66;4439341;32;20153;-77
2022/03/17 06:45:24;;;;;;;21.35;11.43;;;;;;;12.18;49.62;99279.72;4438994;32;20073;-77
2022/03/17 06:47:51;;;;;;;20.88;11.25;;;;;;;12.19;50.68;99286.59;4439367;32;20111;-78
2022/03/17 06:50:20;;;;;;;21.87;11.70;;;;;;;12.03;50.39;99285.37;4439150;32;20105;-78
2022/03/17 06:52:47;;;;;;;24.25;11.52;;;;;;;12.06;50.92;99283.53;4438576;32;20480;-78
2022/03/17 06:55:15;;;;;;;25.08;11.80;;;;;;;12.07;52.97;99279.19;4439269;32;20082;-77
2022/03/17 06:57:42;;;;;;;22.90;12.20;;;;;;;12.21;53.09;99282.22;4439398;32;20129;-78
2022/03/17 07:00:12;;;;;;;23.20;12.45;;;;;;;12.20;52.57;99275.34;4439098;32;20172;-77
2022/03/17 07:02:39;;;;;;;25.05;12.95;;;;;;;12.13;54.12;99276.44;4441395;32;20538;-77
2022/03/17 07:05:07;;;;;;;33.45;15.45;;;;;;;12.20;52.98;99285.72;4441468;32;20112;-77
2022/03/17 07:07:34;;;;;;;31.98;16.25;;;;;;;9.56;56.18;99279.16;4441049;32;20107;-77
2022/03/17 07:10:01;;;;;;;31.52;14.73;;;;;;;8.90;59.34;99279.50;4441260;32;20094;-77
2022/03/17 07:12:28;;;;;;;33.42;18.35;;;;;;;8.10;59.75;99269.50;4441239;32;20375;-77
2022/03/17 07:14:55;;;;;;;32.92;15.90;;;;;;;8.28;62.57;99268.38;4440922;32;20093;-77
2022/03/17 07:17:22;;;;;;;32.80;16.45;;;;;;;8.16;60.40;99264.28;4441281;32;20160;-77
2022/03/17 07:19:58;;;;;;;34.42;16.90;;;;;;;8.30;58.24;99261.53;4441105;32;20089;-76
2022/03/17 07:22:27;;;;;;;32.55;16.02;;;;;;;8.02;59.63;99266.19;4440436;32;20184;-77
2022/03/17 07:24:55;;;;;;;33.90;17.20;;;;;;;8.04;59.19;99261.87;4441019;32;20085;-77
2022/03/17 07:27:23;;;;;;;38.00;17.87;;;;;;;8.26;59.37;99272.72;4441156;32;20101;-77
2022/03/17 07:29:51;;;;;;;32.63;14.48;;;;;;;7.94;58.40;99268.84;4440991;32;20147;-77
2022/03/17 07:32:18;;;;;;;33.97;17.27;;;;;;;8.36;56.70;99276.87;4440943;32;20160;-77
2022/03/17 07:34:46;;;;;;;32.38;15.80;;;;;;;8.60;57.09;99271.38;4440886;32;20136;-76
2022/03/17 07:37:13;;;;;;;33.58;17.83;;;;;;;8.59;55.96;99269.66;4441773;32;20160;-78
2022/03/17 07:39:42;;;;;;;27.00;12.95;;;;;;;8.61;55.70;99273.09;4441581;32;20165;-79
2022/03/17 07:42:09;;;;;;;37.17;17.45;;;;;;;8.90;56.12;99290.63;4450812;26;20109;-79
2022/03/17 07:44:37;;;;;;;36.08;17.12;;;;;;;8.83;54.50;99288.19;4443203;32;20149;-78
2022/03/17 07:47:07;;;;;;;37.47;17.65;;;;;;;8.78;53.77;99280.53;4447036;32;20102;-78
2022/03/17 07:49:38;;;;;;;34.92;18.65;;;;;;;8.69;52.20;99284.09;4446609;32;20101;-78
2022/03/17 07:52:06;;;;;;;33.83;15.68;;;;;;;8.68;52.36;99289.28;4426817;32;20098;-78
2022/03/17 07:54:34;;;;;;;36.40;18.20;;;;;;;8.89;50.57;99277.78;4426790;32;20169;-78
2022/03/17 07:57:03;;;;;;;30.65;14.75;;;;;;;8.65;52.03;99290.19;4428162;32;20161;-78
2022/03/17 07:59:32;;;;;;;32.20;15.32;;;;;;;8.27;52.76;99294.97;4426930;32;20097;-78
2022/03/17 08:01:59;;;;;;;35.38;18.12;;;;;;;8.70;51.86;99293.50;4443766;26;20089;-79
2022/03/17 08:04:27;;;;;;;25.73;11.35;;;;;;;8.77;51.00;99294.28;4437957;32;20100;-78
2022/03/17 08:07:00;;;;;;;33.80;16.85;;;;;;;8.99;50.84;99297.34;4436010;32;20105;-78
2022/03/17 08:09:28;;;;;;;36.38;17.77;;;;;;;8.52;51.11;99287.81;4425252;32;20102;-78
2022/03/17 08:11:55;;;;;;;27.40;13.68;;;;;;;8.32;51.59;99291.50;4424721;32;20146;-78
2022/03/17 08:14:22;;;;;;;33.67;16.85;;;;;;;8.77;49.92;99288.28;4425455;32;20082;-78
2022/03/17 08:16:49;;;;;;;;;;;;;;;8.66;51.37;99291.87;4417392;32;260691;-77
2022/03/17 08:19:17;;;;;;;34.42;17.35;;;;;;;8.68;48.63;99292.69;4425376;32;20078;-77
2022/03/17 08:21:44;;;;;;;31.20;15.25;;;;;;;8.63;50.68;99298.78;4425372;32;20089;-77
2022/03/17 08:24:11;;;;;;;39.17;19.02;;;;;;;8.95;48.39;99299.16;4424545;32;20168;-78
2022/03/17 08:26:38;;;;;;;33.55;17.35;;;;;;;8.68;50.05;99286.69;4425376;32;20170;-78
2022/03/17 08:29:06;;;;;;;34.58;17.33;;;;;;;8.61;49.46;99300.53;4425226;32;20124;-78
2022/03/17 08:31:33;;;;;;;34.00;15.88;;;;;;;8.65;50.04;99297.91;4425219;32;20105;-78
2022/03/17 08:34:00;;;;;;;36.72;17.77;;;;;;;9.17;47.86;99304.78;4425414;32;20156;-78
2022/03/17 08:36:28;;;;;;;34.80;15.50;;;;;;;8.89;48.11;99293.22;4425162;32;20146;-78
2022/03/17 08:38:55;;;;;;;32.63;17.60;;;;;;;8.70;47.52;99298.66;4424793;32;20082;-77
2022/03/17 08:41:22;;;;;;;49.78;17.20;;;;;;;8.77;48.19;99302.00;4424396;32;20097;-77
2022/03/17 08:43:51;;;;;;;36.03;16.20;;;;;;;8.90;48.56;99310.38;4425209;32;20137;-75
2022/03/17 08:49:24;;;;;;;24.27;12.52;;;;;;;8.86;48.25;99304.44;4424088;32;20433;-76
2022/03/17 08:51:56;;;;;;;32.53;15.70;;;;;;;9.33;47.85;99307.94;4423942;32;20081;-75
2022/03/17 08:54:25;;;;;;;32.35;17.15;;;;;;;9.17;47.47;99319.38;4425027;32;20097;-75
2022/03/17 08:56:59;;;;;;;38.45;16.45;;;;;;;9.17;48.00;99311.66;4425173;32;20154;-75
2022/03/17 08:59:30;;;;;;;35.28;17.62;;;;;;;9.26;48.18;99317.50;4424724;32;20117;-76
2022/03/17 09:01:58;;;;;;;30.15;16.55;;;;;;;9.33;47.68;99307.06;4424736;32;20103;-75
2022/03/17 09:04:27;;;;;;;34.60;16.55;;;;;;;9.48;47.73;99319.72;4423929;32;20456;-75
2022/03/17 09:06:59;;;;;;;39.25;19.80;;;;;;;9.17;47.39;99320.22;4424733;32;20104;-75
2022/03/17 09:09:31;;;;;;;38.60;19.35;;;;;;;9.25;47.91;99322.66;4424920;32;20098;-76
2022/03/17 09:11:59;;;;;;;34.80;17.08;;;;;;;9.74;48.54;99321.78;4424971;32;20148;-75
2022/03/17 09:14:26;;;;;;;36.83;18.08;;;;;;;9.50;47.80;99321.38;4424700;32;20188;-75
2022/03/17 09:16:52;;;;;;;;;;;;;;;9.47;49.04;99318.84;4425311;32;20101;-76
2022/03/17 09:19:19;;;;;;;36.28;13.60;;;;;;;10.08;47.70;99329.69;4425035;32;19991;-75
2022/03/17 09:21:47;;;;;;;27.62;11.88;;;;;;;9.91;47.99;99318.88;4424641;32;20111;-75
2022/03/17 09:24:14;;;;;;;34.53;16.48;;;;;;;9.94;48.47;99311.94;4423585;32;20149;-76
2022/03/17 09:26:41;;;;;;;31.10;14.57;;;;;;;9.80;49.29;99325.09;4424682;32;20161;-76
2022/03/17 09:29:08;;;;;;;;;;;;;;;9.96;48.80;99328.22;4425392;32;20115;-76
2022/03/17 09:31:35;;;;;;;31.37;16.35;;;;;;;10.01;49.82;99323.00;4420625;32;20328;-75
2022/03/17 09:34:04;;;;;;;31.58;15.32;;;;;;;8.85;52.36;99315.59;4423370;32;20116;-75
2022/03/17 09:36:30;;;;;;;41.63;19.80;;;;;;;8.66;53.30;99321.91;4423962;32;20157;-75
2022/03/17 09:41:45;;;;;;;37.13;18.17;;;;;;;9.73;51.69;99327.81;4422511;32;20149;-76
2022/03/17 09:44:14;;;;;;;36.67;18.55;;;;;;;9.50;51.90;99329.09;4423013;32;20464;-75
2022/03/17 09:46:44;;;;;;;32.58;16.52;;;;;;;9.64;51.66;99325.41;4423867;32;20153;-75
2022/03/17 09:49:12;;;;;;;31.12;17.15;;;;;;;10.01;50.48;99325.56;4422363;32;20115;-76
2022/03/17 09:51:42;;;;;;;34.10;17.35;;;;;;;10.32;50.78;99321.50;4422876;32;20119;-75
2022/03/17 09:54:10;;;;;;;35.80;16.42;;;;;;;9.60;51.45;99334.09;4423675;32;20229;-75
2022/03/17 09:56:37;;;;;;;29.70;14.93;;;;;;;10.26;50.04;99337.09;4423660;32;20129;-75
2022/03/17 09:59:06;;;;;;;27.58;15.20;;;;;;;11.15;46.92;99338.50;4423933;32;20117;-75
2022/03/17 10:01:34;;;;;;;30.92;15.77;;;;;;;10.70;48.05;99337.84;4422330;32;20140;-76
2022/03/17 10:04:03;;;;;;;25.02;13.60;;;;;;;10.75;49.23;99345.50;4423498;32;20574;-75
2022/03/17 10:06:31;;;;;;;20.77;8.70;;;;;;;10.50;48.78;99345.19;4423764;32;20101;-75
2022/03/17 10:08:59;;;;;;;34.35;16.52;;;;;;;10.94;48.59;99346.75;4423232;32;20458;-75
2022/03/17 10:11:31;;;;;;;29.52;15.20;;;;;;;10.92;48.49;99354.53;4422669;32;20094;-75
2022/03/17 10:14:00;;;;;;;25.00;12.90;;;;;;;10.72;48.73;99346.41;4423682;32;20119;-75
2022/03/17 10:16:27;;;;;;;28.87;14.75;;;;;;;10.67;49.90;99356.00;4423199;32;20113;-75
2022/03/17 10:19:02;;;;;;;28.40;14.50;;;;;;;10.79;49.74;99352.28;4423843;32;20096;-74
2022/03/17 10:21:30;;;;;;;27.40;14.63;;;;;;;11.01;48.01;99354.34;4422266;32;20145;-76
2022/03/17 10:24:03;;;;;;;28.23;14.25;;;;;;;11.20;47.56;99359.06;4423164;32;20101;-75
2022/03/17 10:26:41;;;;;;;24.15;11.77;;;;;;;11.22;46.63;99352.97;4423701;32;20093;-75
2022/03/17 10:29:13;;;;;;;29.58;17.87;;;;;;;11.30;46.67;99355.38;4421849;32;20117;-75
2022/03/17 10:32:06;;;;;;;28.27;15.00;;;;;;;11.08;46.11;99351.63;4422029;32;20148;-75
2022/03/17 10:34:49;;;;;;;33.28;16.83;;;;;;;11.10;47.46;99355.84;4423324;32;20082;-75
2022/03/17 10:37:18;;;;;;;33.03;16.40;;;;;;;11.20;47.36;99351.31;4425269;32;20397;-74
2022/03/17 10:39:47;;;;;;;23.55;12.77;;;;;;;11.22;45.52;99352.97;4424864;32;20097;-74
2022/03/17 10:42:19;;;;;;;28.40;15.50;;;;;;;11.48;46.60;99352.34;4423941;32;20176;-75
2022/03/17 10:44:50;;;;;;;28.55;15.10;;;;;;;11.76;45.05;99352.44;4425466;32;20157;-75
2022/03/17 10:47:30;;;;;;;28.25;13.13;;;;;;;11.78;44.39;99360.16;4425369;32;20145;-74
2022/03/17 10:50:22;;;;;;;36.05;17.48;;;;;;;12.02;43.49;99364.72;4424952;32;20477;-75
2022/03/17 10:52:49;;;;;;;38.25;17.58;;;;;;;11.47;45.12;99363.53;4424484;32;20210;-76
2022/03/17 10:55:25;;;;;;;36.80;18.35;;;;;;;11.27;46.45;99363.19;4418404;32;20078;-75
2022/03/17 10:57:54;;;;;;;32.25;17.77;;;;;;;11.74;44.30;99364.56;4425410;32;20176;-75
2022/03/17 11:00:27;;;;;;;28.00;15.27;;;;;;;11.58;43.67;99361.53;4424629;32;20102;-75
2022/03/17 11:02:58;;;;;;;31.62;14.65;;;;;;;11.81;43.67;99368.72;4424348;32;20089;-75
2022/03/17 11:05:29;;;;;;;37.55;17.98;;;;;;;11.65;42.93;99359.63;4424447;32;20155;-75
2022/03/17 11:07:58;;;;;;;31.90;15.10;;;;;;;11.88;44.00;99364.22;4425376;32;20144;-75
2022/03/17 11:10:26;;;;;;;31.77;15.60;;;;;;;11.99;44.56;99361.34;4424686;32;20101;-76
2022/03/17 11:12:53;;;;;;;29.15;15.93;;;;;;;12.07;43.08;99356.81;4424039;32;20132;-76
2022/03/17 11:15:28;;;;;;;33.00;16.35;;;;;;;11.86;44.40;99363.41;4425270;32;20161;-77
2022/03/17 11:18:02;;;;;;;33.70;17.60;;;;;;;11.85;43.87;99359.13;4424445;32;20113;-77
2022/03/17 11:20:30;;;;;;;38.28;19.10;;;;;;;11.95;43.77;99355.41;4422484;32;20101;-76
2022/03/17 11:23:20;;;;;;;34.95;18.90;;;;;;;11.57;44.01;99352.06;4424661;32;20163;-76
2022/03/17 11:25:57;;;;;;;33.05;15.98;;;;;;;11.43;44.00;99349.00;4424018;32;20082;-77
2022/03/17 11:28:34;;;;;;;33.63;18.30;;;;;;;11.75;44.20;99352.47;4424467;32;20153;-76
2022/03/17 11:31:12;;;;;;;31.98;16.70;;;;;;;11.58;45.06;99353.75;4423669;32;20145;-75
2022/03/17 11:33:45;;;;;;;35.95;17.77;;;;;;;11.64;44.47;99354.50;4423280;32;20089;-77
2022/03/17 11:36:21;;;;;;;33.72;17.77;;;;;;;11.34;43.45;99348.38;4425298;32;20424;-76
2022/03/17 11:38:58;;;;;;;36.20;18.97;;;;;;;11.29;43.63;99345.94;4424926;32;20105;-76
2022/03/17 11:41:27;;;;;;;;;;;;;;;11.68;43.00;99349.19;4424424;32;20166;-76
2022/03/17 11:43:54;;;;;;;40.17;18.30;;;;;;;11.30;43.60;99350.22;4423050;32;19995;-76
2022/03/17 11:46:45;;;;;;;31.70;16.02;;;;;;;11.37;43.08;99356.06;4422723;32;20116;-77
2022/03/17 11:49:17;;;;;;;;;;;;;;;11.16;44.29;99358.28;4422477;32;20120;-77
2022/03/17 11:52:02;;;;;;;35.33;18.50;;;;;;;10.97;44.66;99357.88;4422874;32;20079;-77
2022/03/17 11:54:30;;;;;;;33.88;16.42;;;;;;;11.21;45.40;99359.03;4421967;32;20511;-77
2022/03/17 11:56:59;;;;;;;32.65;16.80;;;;;;;10.79;46.26;99357.47;4423724;32;20090;-77